sensor_id;sensor_type;location;lat;lon;timestamp;P1;durP1;ratioP1;P2;durP2;ratioP2
12072;SDS011;6098;49.004;8.372;2023-12-04T00:13:55;19.57;;;9.69;;
12072;SDS011;6098;49.004;8.372;2023-12-04T00:28:45;12.36;;;8.18;;
12072;SDS011;6098;49.004;8.372;2023-12-04T00:43:35;14.21;;;8.20;;
12072;SDS011;6098;49.004;8.372;2023-12-04T00:58:26;14.69;;;7.66;;
12072;SDS011;6098;49.004;8.372;2023-12-04T01:13:15;12.83;;;7.41;;
12072;SDS011;6098;49.004;8.372;2023-12-04T01:28:05;15.13;;;6.90;;
12072;SDS011;6098;49.004;8.372;2023-12-04T01:42:56;15.39;;;7.66;;
12072;SDS011;6098;49.004;8.372;2023-12-04T01:58:02;12.72;;;7.82;;
12072;SDS011;6098;49.004;8.372;2023-12-04T02:12:54;14.93;;;7.32;;
12072;SDS011;6098;49.004;8.372;2023-12-04T02:27:52;11.12;;;7.03;;
12072;SDS011;6098;49.004;8.372;2023-12-04T02:42:46;10.74;;;6.39;;
12072;SDS011;6098;49.004;8.372;2023-12-04T02:57:36;9.48;;;6.73;;
12072;SDS011;6098;49.004;8.372;2023-12-04T03:12:41;7.17;;;6.18;;
12072;SDS011;6098;49.004;8.372;2023-12-04T03:27:28;11.12;;;7.27;;
12072;SDS011;6098;49.004;8.372;2023-12-04T03:42:17;10.33;;;6.53;;
12072;SDS011;6098;49.004;8.372;2023-12-04T03:57:07;15.21;;;8.17;;
12072;SDS011;6098;49.004;8.372;2023-12-04T04:11:58;10.96;;;6.44;;
12072;SDS011;6098;49.004;8.372;2023-12-04T04:26:48;17.30;;;10.17;;
12072;SDS011;6098;49.004;8.372;2023-12-04T04:41:37;14.78;;;8.08;;
12072;SDS011;6098;49.004;8.372;2023-12-04T04:56:28;8.77;;;6.11;;
12072;SDS011;6098;49.004;8.372;2023-12-04T05:11:18;14.21;;;6.99;;
12072;SDS011;6098;49.004;8.372;2023-12-04T05:26:08;14.37;;;7.96;;
12072;SDS011;6098;49.004;8.372;2023-12-04T05:40:58;12.54;;;7.52;;
12072;SDS011;6098;49.004;8.372;2023-12-04T05:55:48;11.91;;;7.18;;
12072;SDS011;6098;49.004;8.372;2023-12-04T06:10:39;11.77;;;7.33;;
12072;SDS011;6098;49.004;8.372;2023-12-04T06:25:29;10.87;;;6.91;;
12072;SDS011;6098;49.004;8.372;2023-12-04T06:40:21;18.00;;;8.92;;
12072;SDS011;6098;49.004;8.372;2023-12-04T06:55:13;14.38;;;8.11;;
12072;SDS011;6098;49.004;8.372;2023-12-04T07:10:05;9.87;;;7.08;;
12072;SDS011;6098;49.004;8.372;2023-12-04T07:24:57;11.33;;;5.91;;
12072;SDS011;6098;49.004;8.372;2023-12-04T07:39:48;10.59;;;5.61;;
12072;SDS011;6098;49.004;8.372;2023-12-04T07:54:40;9.74;;;5.67;;
12072;SDS011;6098;49.004;8.372;2023-12-04T08:09:30;13.71;;;6.63;;
12072;SDS011;6098;49.004;8.372;2023-12-04T08:24:21;7.59;;;4.96;;
12072;SDS011;6098;49.004;8.372;2023-12-04T08:39:11;11.73;;;6.12;;
12072;SDS011;6098;49.004;8.372;2023-12-04T08:54:01;8.14;;;6.02;;
12072;SDS011;6098;49.004;8.372;2023-12-04T09:08:51;10.43;;;5.97;;
12072;SDS011;6098;49.004;8.372;2023-12-04T09:23:41;12.53;;;5.62;;
12072;SDS011;6098;49.004;8.372;2023-12-04T09:38:32;9.62;;;6.34;;
12072;SDS011;6098;49.004;8.372;2023-12-04T09:53:22;12.64;;;6.54;;
12072;SDS011;6098;49.004;8.372;2023-12-04T10:08:13;13.30;;;6.87;;
12072;SDS011;6098;49.004;8.372;2023-12-04T10:23:13;12.12;;;6.47;;
12072;SDS011;6098;49.004;8.372;2023-12-04T10:38:06;12.90;;;6.78;;
12072;SDS011;6098;49.004;8.372;2023-12-04T10:52:56;11.57;;;6.26;;
12072;SDS011;6098;49.004;8.372;2023-12-04T11:07:59;11.08;;;6.44;;
12072;SDS011;6098;49.004;8.372;2023-12-04T11:22:56;11.11;;;6.23;;
12072;SDS011;6098;49.004;8.372;2023-12-04T11:37:47;10.50;;;5.90;;
12072;SDS011;6098;49.004;8.372;2023-12-04T11:52:38;15.27;;;5.98;;
12072;SDS011;6098;49.004;8.372;2023-12-04T12:07:29;13.58;;;7.20;;
12072;SDS011;6098;49.004;8.372;2023-12-04T12:22:19;14.87;;;7.28;;
12072;SDS011;6098;49.004;8.372;2023-12-04T12:37:09;15.18;;;7.41;;
12072;SDS011;6098;49.004;8.372;2023-12-04T12:52:01;11.29;;;7.02;;
12072;SDS011;6098;49.004;8.372;2023-12-04T13:06:51;11.09;;;6.83;;
12072;SDS011;6098;49.004;8.372;2023-12-04T13:21:41;12.30;;;7.44;;
12072;SDS011;6098;49.004;8.372;2023-12-04T13:36:31;16.02;;;7.61;;
12072;SDS011;6098;49.004;8.372;2023-12-04T13:51:21;14.19;;;7.12;;
12072;SDS011;6098;49.004;8.372;2023-12-04T14:06:11;11.79;;;7.38;;
12072;SDS011;6098;49.004;8.372;2023-12-04T14:21:01;16.18;;;7.62;;
12072;SDS011;6098;49.004;8.372;2023-12-04T14:35:52;15.32;;;8.17;;
12072;SDS011;6098;49.004;8.372;2023-12-04T14:50:42;13.42;;;8.01;;
12072;SDS011;6098;49.004;8.372;2023-12-04T15:05:34;11.76;;;7.77;;
12072;SDS011;6098;49.004;8.372;2023-12-04T15:20:34;13.98;;;7.92;;
12072;SDS011;6098;49.004;8.372;2023-12-04T15:35:25;14.26;;;9.40;;
12072;SDS011;6098;49.004;8.372;2023-12-04T15:50:19;15.36;;;8.58;;
12072;SDS011;6098;49.004;8.372;2023-12-04T16:05:11;14.52;;;8.19;;
12072;SDS011;6098;49.004;8.372;2023-12-04T16:20:03;22.59;;;12.01;;
12072;SDS011;6098;49.004;8.372;2023-12-04T16:34:53;21.44;;;11.23;;
12072;SDS011;6098;49.004;8.372;2023-12-04T16:49:44;22.76;;;11.48;;
12072;SDS011;6098;49.004;8.372;2023-12-04T17:04:35;21.08;;;11.82;;
12072;SDS011;6098;49.004;8.372;2023-12-04T17:19:25;17.30;;;9.86;;
12072;SDS011;6098;49.004;8.372;2023-12-04T17:34:15;22.02;;;10.83;;
12072;SDS011;6098;49.004;8.372;2023-12-04T17:49:07;22.94;;;10.91;;
12072;SDS011;6098;49.004;8.372;2023-12-04T18:03:58;21.07;;;11.72;;
12072;SDS011;6098;49.004;8.372;2023-12-04T18:18:49;23.71;;;10.66;;
12072;SDS011;6098;49.004;8.372;2023-12-04T18:33:40;19.97;;;11.11;;
12072;SDS011;6098;49.004;8.372;2023-12-04T18:48:30;25.51;;;10.21;;
12072;SDS011;6098;49.004;8.372;2023-12-04T19:03:19;21.22;;;11.72;;
12072;SDS011;6098;49.004;8.372;2023-12-04T19:18:11;22.16;;;12.52;;
12072;SDS011;6098;49.004;8.372;2023-12-04T19:33:03;22.33;;;12.59;;
12072;SDS011;6098;49.004;8.372;2023-12-04T19:47:55;18.46;;;11.14;;
12072;SDS011;6098;49.004;8.372;2023-12-04T20:02:45;23.27;;;11.64;;
12072;SDS011;6098;49.004;8.372;2023-12-04T20:17:36;19.06;;;10.40;;
12072;SDS011;6098;49.004;8.372;2023-12-04T20:32:27;24.29;;;10.90;;
12072;SDS011;6098;49.004;8.372;2023-12-04T20:47:18;16.24;;;10.73;;
12072;SDS011;6098;49.004;8.372;2023-12-04T21:02:09;16.99;;;10.58;;
12072;SDS011;6098;49.004;8.372;2023-12-04T21:16:59;19.23;;;11.08;;
12072;SDS011;6098;49.004;8.372;2023-12-04T21:31:51;18.78;;;11.57;;
12072;SDS011;6098;49.004;8.372;2023-12-04T21:46:42;20.10;;;11.38;;
12072;SDS011;6098;49.004;8.372;2023-12-04T22:01:32;21.56;;;11.48;;
12072;SDS011;6098;49.004;8.372;2023-12-04T22:16:24;23.50;;;11.71;;
12072;SDS011;6098;49.004;8.372;2023-12-04T22:31:15;26.17;;;13.71;;
12072;SDS011;6098;49.004;8.372;2023-12-04T22:46:07;23.97;;;13.66;;
12072;SDS011;6098;49.004;8.372;2023-12-04T23:00:58;22.12;;;12.48;;
12072;SDS011;6098;49.004;8.372;2023-12-04T23:15:49;22.14;;;12.40;;
12072;SDS011;6098;49.004;8.372;2023-12-04T23:30:39;23.76;;;13.06;;
12072;SDS011;6098;49.004;8.372;2023-12-04T23:45:45;22.60;;;12.97;;
